sensor_id;sensor_type;location;lat;lon;timestamp;P1;durP1;ratioP1;P2;durP2;ratioP2
58360;SDS011;44164;44.954;10.068;2024-03-25T00:02:19;7.18;;;3.20;;
58360;SDS011;44164;44.954;10.068;2024-03-25T00:04:45;7.97;;;2.45;;
58360;SDS011;44164;44.954;10.068;2024-03-25T00:07:11;5.55;;;2.88;;
58360;SDS011;44164;44.954;10.068;2024-03-25T00:09:37;4.57;;;2.60;;
58360;SDS011;44164;44.954;10.068;2024-03-25T00:12:03;4.50;;;2.40;;
58360;SDS011;44164;44.954;10.068;2024-03-25T00:14:30;6.40;;;2.83;;
58360;SDS011;44164;44.954;10.068;2024-03-25T00:16:56;5.88;;;2.40;;
58360;SDS011;44164;44.954;10.068;2024-03-25T00:19:22;5.85;;;2.53;;
58360;SDS011;44164;44.954;10.068;2024-03-25T00:21:48;5.72;;;2.75;;
58360;SDS011;44164;44.954;10.068;2024-03-25T00:24:14;3.90;;;2.45;;
58360;SDS011;44164;44.954;10.068;2024-03-25T00:26:40;5.68;;;2.38;;
58360;SDS011;44164;44.954;10.068;2024-03-25T00:29:06;6.32;;;2.85;;
58360;SDS011;44164;44.954;10.068;2024-03-25T00:31:33;4.25;;;2.38;;
58360;SDS011;44164;44.954;10.068;2024-03-25T00:33:59;4.78;;;2.63;;
58360;SDS011;44164;44.954;10.068;2024-03-25T00:36:25;5.00;;;2.72;;
58360;SDS011;44164;44.954;10.068;2024-03-25T00:38:51;4.10;;;2.15;;
58360;SDS011;44164;44.954;10.068;2024-03-25T00:41:17;4.50;;;2.33;;
58360;SDS011;44164;44.954;10.068;2024-03-25T00:43:43;5.95;;;2.85;;
58360;SDS011;44164;44.954;10.068;2024-03-25T00:46:09;5.20;;;2.22;;
58360;SDS011;44164;44.954;10.068;2024-03-25T00:48:35;2.97;;;1.85;;
58360;SDS011;44164;44.954;10.068;2024-03-25T00:51:03;4.75;;;2.25;;
58360;SDS011;44164;44.954;10.068;2024-03-25T00:53:29;5.63;;;2.38;;
58360;SDS011;44164;44.954;10.068;2024-03-25T00:55:55;4.90;;;2.42;;
58360;SDS011;44164;44.954;10.068;2024-03-25T00:58:22;5.38;;;2.20;;
58360;SDS011;44164;44.954;10.068;2024-03-25T01:00:48;4.68;;;2.33;;
58360;SDS011;44164;44.954;10.068;2024-03-25T01:03:14;4.82;;;2.13;;
58360;SDS011;44164;44.954;10.068;2024-03-25T01:05:40;3.53;;;2.08;;
58360;SDS011;44164;44.954;10.068;2024-03-25T01:08:06;5.72;;;2.72;;
58360;SDS011;44164;44.954;10.068;2024-03-25T01:10:33;3.80;;;2.03;;
58360;SDS011;44164;44.954;10.068;2024-03-25T01:12:59;3.33;;;2.35;;
58360;SDS011;44164;44.954;10.068;2024-03-25T01:15:25;4.68;;;2.13;;
58360;SDS011;44164;44.954;10.068;2024-03-25T01:17:51;3.42;;;2.35;;
58360;SDS011;44164;44.954;10.068;2024-03-25T01:20:17;4.07;;;2.00;;
58360;SDS011;44164;44.954;10.068;2024-03-25T01:22:43;4.15;;;2.08;;
58360;SDS011;44164;44.954;10.068;2024-03-25T01:25:09;3.90;;;1.90;;
58360;SDS011;44164;44.954;10.068;2024-03-25T01:27:35;3.25;;;1.88;;
58360;SDS011;44164;44.954;10.068;2024-03-25T01:30:01;3.88;;;1.70;;
58360;SDS011;44164;44.954;10.068;2024-03-25T01:32:29;3.00;;;1.67;;
58360;SDS011;44164;44.954;10.068;2024-03-25T01:34:56;4.45;;;1.77;;
58360;SDS011;44164;44.954;10.068;2024-03-25T01:37:22;4.43;;;1.98;;
58360;SDS011;44164;44.954;10.068;2024-03-25T01:39:48;3.33;;;1.92;;
58360;SDS011;44164;44.954;10.068;2024-03-25T01:42:14;4.40;;;1.70;;
58360;SDS011;44164;44.954;10.068;2024-03-25T01:44:40;2.95;;;1.52;;
58360;SDS011;44164;44.954;10.068;2024-03-25T01:47:06;3.85;;;1.95;;
58360;SDS011;44164;44.954;10.068;2024-03-25T01:49:32;2.55;;;1.63;;
58360;SDS011;44164;44.954;10.068;2024-03-25T01:51:58;3.15;;;2.03;;
58360;SDS011;44164;44.954;10.068;2024-03-25T01:54:25;3.13;;;2.05;;
58360;SDS011;44164;44.954;10.068;2024-03-25T01:56:51;3.42;;;1.70;;
58360;SDS011;44164;44.954;10.068;2024-03-25T01:59:19;3.35;;;1.50;;
58360;SDS011;44164;44.954;10.068;2024-03-25T02:01:45;3.83;;;1.73;;
58360;SDS011;44164;44.954;10.068;2024-03-25T02:04:13;3.95;;;1.80;;
58360;SDS011;44164;44.954;10.068;2024-03-25T02:06:40;3.92;;;1.65;;
58360;SDS011;44164;44.954;10.068;2024-03-25T02:09:07;2.03;;;1.20;;
58360;SDS011;44164;44.954;10.068;2024-03-25T02:11:34;3.63;;;1.88;;
58360;SDS011;44164;44.954;10.068;2024-03-25T02:14:01;3.30;;;1.67;;
58360;SDS011;44164;44.954;10.068;2024-03-25T02:16:27;3.92;;;1.73;;
58360;SDS011;44164;44.954;10.068;2024-03-25T02:18:53;2.38;;;1.60;;
58360;SDS011;44164;44.954;10.068;2024-03-25T02:21:19;3.55;;;1.85;;
58360;SDS011;44164;44.954;10.068;2024-03-25T02:23:45;3.28;;;1.60;;
58360;SDS011;44164;44.954;10.068;2024-03-25T02:26:13;3.78;;;2.15;;
58360;SDS011;44164;44.954;10.068;2024-03-25T02:28:39;3.15;;;1.55;;
58360;SDS011;44164;44.954;10.068;2024-03-25T02:31:05;3.25;;;1.50;;
58360;SDS011;44164;44.954;10.068;2024-03-25T02:33:31;2.90;;;1.50;;
58360;SDS011;44164;44.954;10.068;2024-03-25T02:35:57;2.60;;;1.33;;
58360;SDS011;44164;44.954;10.068;2024-03-25T02:38:23;4.13;;;1.65;;
58360;SDS011;44164;44.954;10.068;2024-03-25T02:40:49;3.72;;;1.30;;
58360;SDS011;44164;44.954;10.068;2024-03-25T02:43:15;2.58;;;1.45;;
58360;SDS011;44164;44.954;10.068;2024-03-25T02:45:42;2.85;;;1.58;;
58360;SDS011;44164;44.954;10.068;2024-03-25T02:48:08;2.47;;;1.30;;
58360;SDS011;44164;44.954;10.068;2024-03-25T02:50:34;3.95;;;1.48;;
58360;SDS011;44164;44.954;10.068;2024-03-25T02:53:00;3.58;;;1.52;;
58360;SDS011;44164;44.954;10.068;2024-03-25T02:55:26;3.35;;;1.40;;
58360;SDS011;44164;44.954;10.068;2024-03-25T02:57:52;2.28;;;1.10;;
58360;SDS011;44164;44.954;10.068;2024-03-25T03:00:18;2.78;;;1.20;;
58360;SDS011;44164;44.954;10.068;2024-03-25T03:02:44;4.03;;;1.30;;
58360;SDS011;44164;44.954;10.068;2024-03-25T03:05:10;2.17;;;1.30;;
58360;SDS011;44164;44.954;10.068;2024-03-25T03:07:36;2.72;;;1.42;;
58360;SDS011;44164;44.954;10.068;2024-03-25T03:10:02;2.53;;;1.30;;
58360;SDS011;44164;44.954;10.068;2024-03-25T03:12:28;2.63;;;1.50;;
58360;SDS011;44164;44.954;10.068;2024-03-25T03:14:54;2.45;;;1.20;;
58360;SDS011;44164;44.954;10.068;2024-03-25T03:17:20;2.05;;;1.30;;
58360;SDS011;44164;44.954;10.068;2024-03-25T03:19:46;4.18;;;1.40;;
58360;SDS011;44164;44.954;10.068;2024-03-25T03:22:12;2.85;;;1.42;;
58360;SDS011;44164;44.954;10.068;2024-03-25T03:24:38;2.78;;;1.40;;
58360;SDS011;44164;44.954;10.068;2024-03-25T03:27:05;3.13;;;1.20;;
58360;SDS011;44164;44.954;10.068;2024-03-25T03:29:31;3.38;;;1.30;;
58360;SDS011;44164;44.954;10.068;2024-03-25T03:31:57;3.78;;;1.30;;
58360;SDS011;44164;44.954;10.068;2024-03-25T03:34:23;2.85;;;1.45;;
58360;SDS011;44164;44.954;10.068;2024-03-25T03:36:49;2.72;;;1.30;;
58360;SDS011;44164;44.954;10.068;2024-03-25T03:39:15;2.03;;;1.10;;
58360;SDS011;44164;44.954;10.068;2024-03-25T03:41:41;2.92;;;1.38;;
58360;SDS011;44164;44.954;10.068;2024-03-25T03:44:07;3.15;;;1.05;;
58360;SDS011;44164;44.954;10.068;2024-03-25T03:46:35;2.03;;;1.30;;
58360;SDS011;44164;44.954;10.068;2024-03-25T03:49:01;2.70;;;1.00;;
58360;SDS011;44164;44.954;10.068;2024-03-25T03:51:27;2.85;;;1.13;;
58360;SDS011;44164;44.954;10.068;2024-03-25T03:53:53;3.35;;;1.00;;
58360;SDS011;44164;44.954;10.068;2024-03-25T03:56:19;2.30;;;1.20;;
58360;SDS011;44164;44.954;10.068;2024-03-25T03:58:45;2.33;;;0.80;;
58360;SDS011;44164;44.954;10.068;2024-03-25T04:01:15;2.42;;;1.00;;
58360;SDS011;44164;44.954;10.068;2024-03-25T04:03:42;2.90;;;1.23;;
58360;SDS011;44164;44.954;10.068;2024-03-25T04:06:09;2.08;;;1.10;;
58360;SDS011;44164;44.954;10.068;2024-03-25T04:08:36;2.40;;;0.95;;
58360;SDS011;44164;44.954;10.068;2024-03-25T04:11:03;7.43;;;0.90;;
58360;SDS011;44164;44.954;10.068;2024-03-25T04:13:34;3.10;;;1.10;;
58360;SDS011;44164;44.954;10.068;2024-03-25T04:16:04;2.25;;;1.00;;
58360;SDS011;44164;44.954;10.068;2024-03-25T04:18:32;2.58;;;1.20;;
58360;SDS011;44164;44.954;10.068;2024-03-25T04:20:58;3.00;;;1.00;;
58360;SDS011;44164;44.954;10.068;2024-03-25T04:23:25;2.97;;;1.30;;
58360;SDS011;44164;44.954;10.068;2024-03-25T04:25:51;2.90;;;1.15;;
58360;SDS011;44164;44.954;10.068;2024-03-25T04:28:17;1.02;;;0.60;;
58360;SDS011;44164;44.954;10.068;2024-03-25T04:30:43;1.80;;;0.82;;
58360;SDS011;44164;44.954;10.068;2024-03-25T04:33:09;1.90;;;1.00;;
58360;SDS011;44164;44.954;10.068;2024-03-25T04:35:35;1.63;;;0.93;;
58360;SDS011;44164;44.954;10.068;2024-03-25T04:38:01;1.90;;;1.00;;
58360;SDS011;44164;44.954;10.068;2024-03-25T04:40:28;2.95;;;0.90;;
58360;SDS011;44164;44.954;10.068;2024-03-25T04:42:55;2.00;;;1.15;;
58360;SDS011;44164;44.954;10.068;2024-03-25T04:45:21;1.65;;;0.90;;
58360;SDS011;44164;44.954;10.068;2024-03-25T04:47:48;2.40;;;1.02;;
58360;SDS011;44164;44.954;10.068;2024-03-25T04:50:14;1.85;;;0.90;;
58360;SDS011;44164;44.954;10.068;2024-03-25T04:52:40;3.58;;;1.02;;
58360;SDS011;44164;44.954;10.068;2024-03-25T04:55:07;2.72;;;0.90;;
58360;SDS011;44164;44.954;10.068;2024-03-25T04:57:33;3.05;;;1.00;;
58360;SDS011;44164;44.954;10.068;2024-03-25T05:00:00;2.53;;;1.17;;
58360;SDS011;44164;44.954;10.068;2024-03-25T05:02:26;2.05;;;1.00;;
58360;SDS011;44164;44.954;10.068;2024-03-25T05:04:52;2.78;;;1.02;;
58360;SDS011;44164;44.954;10.068;2024-03-25T05:07:18;3.15;;;1.15;;
58360;SDS011;44164;44.954;10.068;2024-03-25T05:09:44;2.28;;;1.20;;
58360;SDS011;44164;44.954;10.068;2024-03-25T05:12:10;1.50;;;0.80;;
58360;SDS011;44164;44.954;10.068;2024-03-25T05:14:36;2.80;;;1.10;;
58360;SDS011;44164;44.954;10.068;2024-03-25T05:17:02;3.25;;;1.00;;
58360;SDS011;44164;44.954;10.068;2024-03-25T05:19:31;1.85;;;1.02;;
58360;SDS011;44164;44.954;10.068;2024-03-25T05:21:57;2.15;;;0.93;;
58360;SDS011;44164;44.954;10.068;2024-03-25T05:24:23;1.58;;;0.80;;
58360;SDS011;44164;44.954;10.068;2024-03-25T05:26:49;2.30;;;0.90;;
58360;SDS011;44164;44.954;10.068;2024-03-25T05:29:15;1.60;;;0.70;;
58360;SDS011;44164;44.954;10.068;2024-03-25T05:31:55;2.70;;;0.80;;
58360;SDS011;44164;44.954;10.068;2024-03-25T05:34:23;2.83;;;1.10;;
58360;SDS011;44164;44.954;10.068;2024-03-25T05:36:50;2.95;;;1.35;;
58360;SDS011;44164;44.954;10.068;2024-03-25T05:39:16;3.42;;;1.33;;
58360;SDS011;44164;44.954;10.068;2024-03-25T05:41:42;2.55;;;1.08;;
58360;SDS011;44164;44.954;10.068;2024-03-25T05:44:08;2.95;;;1.00;;
58360;SDS011;44164;44.954;10.068;2024-03-25T05:46:34;2.30;;;1.00;;
58360;SDS011;44164;44.954;10.068;2024-03-25T05:49:03;1.80;;;0.85;;
58360;SDS011;44164;44.954;10.068;2024-03-25T05:51:30;3.47;;;0.93;;
58360;SDS011;44164;44.954;10.068;2024-03-25T05:53:56;2.35;;;1.13;;
58360;SDS011;44164;44.954;10.068;2024-03-25T05:56:22;3.28;;;1.00;;
58360;SDS011;44164;44.954;10.068;2024-03-25T05:58:49;2.45;;;1.15;;
58360;SDS011;44164;44.954;10.068;2024-03-25T06:01:15;2.60;;;1.02;;
58360;SDS011;44164;44.954;10.068;2024-03-25T06:03:41;4.57;;;1.10;;
58360;SDS011;44164;44.954;10.068;2024-03-25T06:06:07;2.00;;;1.05;;
58360;SDS011;44164;44.954;10.068;2024-03-25T06:08:33;1.55;;;0.95;;
58360;SDS011;44164;44.954;10.068;2024-03-25T06:11:02;2.63;;;1.02;;
58360;SDS011;44164;44.954;10.068;2024-03-25T06:13:28;2.55;;;1.00;;
58360;SDS011;44164;44.954;10.068;2024-03-25T06:15:54;2.65;;;1.27;;
58360;SDS011;44164;44.954;10.068;2024-03-25T06:18:20;3.28;;;1.20;;
58360;SDS011;44164;44.954;10.068;2024-03-25T06:20:46;2.95;;;0.85;;
58360;SDS011;44164;44.954;10.068;2024-03-25T06:23:22;2.03;;;1.10;;
58360;SDS011;44164;44.954;10.068;2024-03-25T06:25:49;6.53;;;1.23;;
58360;SDS011;44164;44.954;10.068;2024-03-25T06:28:19;4.25;;;1.20;;
58360;SDS011;44164;44.954;10.068;2024-03-25T06:30:46;4.10;;;1.05;;
58360;SDS011;44164;44.954;10.068;2024-03-25T06:33:31;3.13;;;1.15;;
58360;SDS011;44164;44.954;10.068;2024-03-25T06:36:16;3.30;;;1.15;;
58360;SDS011;44164;44.954;10.068;2024-03-25T06:38:43;3.38;;;1.50;;
58360;SDS011;44164;44.954;10.068;2024-03-25T06:41:09;5.18;;;0.90;;
58360;SDS011;44164;44.954;10.068;2024-03-25T06:43:36;3.50;;;1.20;;
58360;SDS011;44164;44.954;10.068;2024-03-25T06:46:04;4.80;;;1.20;;
58360;SDS011;44164;44.954;10.068;2024-03-25T06:48:30;3.83;;;1.02;;
58360;SDS011;44164;44.954;10.068;2024-03-25T06:50:57;2.75;;;1.25;;
58360;SDS011;44164;44.954;10.068;2024-03-25T06:53:24;6.30;;;1.45;;
58360;SDS011;44164;44.954;10.068;2024-03-25T06:55:51;2.13;;;1.10;;
58360;SDS011;44164;44.954;10.068;2024-03-25T06:58:21;3.03;;;1.02;;
58360;SDS011;44164;44.954;10.068;2024-03-25T07:00:48;2.70;;;0.98;;
58360;SDS011;44164;44.954;10.068;2024-03-25T07:03:15;3.00;;;1.17;;
58360;SDS011;44164;44.954;10.068;2024-03-25T07:05:45;2.65;;;1.08;;
58360;SDS011;44164;44.954;10.068;2024-03-25T07:08:12;2.80;;;1.10;;
58360;SDS011;44164;44.954;10.068;2024-03-25T07:10:42;2.50;;;1.02;;
58360;SDS011;44164;44.954;10.068;2024-03-25T07:13:08;4.10;;;0.95;;
58360;SDS011;44164;44.954;10.068;2024-03-25T07:15:36;4.20;;;1.10;;
58360;SDS011;44164;44.954;10.068;2024-03-25T07:18:02;5.13;;;1.30;;
58360;SDS011;44164;44.954;10.068;2024-03-25T07:20:29;4.03;;;0.90;;
58360;SDS011;44164;44.954;10.068;2024-03-25T07:22:56;5.82;;;0.98;;
58360;SDS011;44164;44.954;10.068;2024-03-25T07:25:23;3.67;;;1.20;;
58360;SDS011;44164;44.954;10.068;2024-03-25T07:27:49;8.90;;;2.05;;
58360;SDS011;44164;44.954;10.068;2024-03-25T07:30:16;3.17;;;0.90;;
58360;SDS011;44164;44.954;10.068;2024-03-25T07:32:42;4.00;;;1.08;;
58360;SDS011;44164;44.954;10.068;2024-03-25T07:35:10;4.35;;;1.20;;
58360;SDS011;44164;44.954;10.068;2024-03-25T07:37:37;2.63;;;1.10;;
58360;SDS011;44164;44.954;10.068;2024-03-25T07:40:06;4.53;;;0.90;;
58360;SDS011;44164;44.954;10.068;2024-03-25T07:42:32;2.75;;;1.08;;
58360;SDS011;44164;44.954;10.068;2024-03-25T07:44:58;1.77;;;0.93;;
58360;SDS011;44164;44.954;10.068;2024-03-25T07:47:25;2.03;;;1.05;;
58360;SDS011;44164;44.954;10.068;2024-03-25T07:49:51;2.65;;;1.20;;
58360;SDS011;44164;44.954;10.068;2024-03-25T07:52:18;1.73;;;0.98;;
58360;SDS011;44164;44.954;10.068;2024-03-25T07:54:44;1.73;;;0.88;;
58360;SDS011;44164;44.954;10.068;2024-03-25T07:57:10;2.97;;;0.93;;
58360;SDS011;44164;44.954;10.068;2024-03-25T07:59:36;3.13;;;0.88;;
58360;SDS011;44164;44.954;10.068;2024-03-25T08:02:02;3.85;;;1.23;;
58360;SDS011;44164;44.954;10.068;2024-03-25T08:04:28;4.32;;;1.20;;
58360;SDS011;44164;44.954;10.068;2024-03-25T08:06:55;6.43;;;1.20;;
58360;SDS011;44164;44.954;10.068;2024-03-25T08:09:21;3.17;;;1.05;;
58360;SDS011;44164;44.954;10.068;2024-03-25T08:11:47;4.25;;;1.33;;
58360;SDS011;44164;44.954;10.068;2024-03-25T08:14:13;3.13;;;0.90;;
58360;SDS011;44164;44.954;10.068;2024-03-25T08:16:39;3.63;;;1.00;;
58360;SDS011;44164;44.954;10.068;2024-03-25T08:19:05;3.05;;;1.02;;
58360;SDS011;44164;44.954;10.068;2024-03-25T08:21:31;3.80;;;0.90;;
58360;SDS011;44164;44.954;10.068;2024-03-25T08:23:57;1.75;;;0.80;;
58360;SDS011;44164;44.954;10.068;2024-03-25T08:26:23;2.35;;;0.70;;
58360;SDS011;44164;44.954;10.068;2024-03-25T08:28:50;2.20;;;0.73;;
58360;SDS011;44164;44.954;10.068;2024-03-25T08:31:16;4.68;;;1.10;;
58360;SDS011;44164;44.954;10.068;2024-03-25T08:33:42;2.25;;;0.95;;
58360;SDS011;44164;44.954;10.068;2024-03-25T08:36:08;2.75;;;1.00;;
58360;SDS011;44164;44.954;10.068;2024-03-25T08:38:34;3.45;;;1.15;;
58360;SDS011;44164;44.954;10.068;2024-03-25T08:41:00;3.88;;;0.90;;
58360;SDS011;44164;44.954;10.068;2024-03-25T08:43:26;3.50;;;1.10;;
58360;SDS011;44164;44.954;10.068;2024-03-25T08:45:53;1.83;;;0.90;;
58360;SDS011;44164;44.954;10.068;2024-03-25T08:48:19;3.15;;;1.20;;
58360;SDS011;44164;44.954;10.068;2024-03-25T08:50:45;3.13;;;0.85;;
58360;SDS011;44164;44.954;10.068;2024-03-25T08:53:11;2.50;;;1.15;;
58360;SDS011;44164;44.954;10.068;2024-03-25T08:55:37;3.95;;;0.90;;
58360;SDS011;44164;44.954;10.068;2024-03-25T08:58:03;3.08;;;1.10;;
58360;SDS011;44164;44.954;10.068;2024-03-25T09:00:29;2.33;;;0.90;;
58360;SDS011;44164;44.954;10.068;2024-03-25T09:02:55;2.17;;;0.90;;
58360;SDS011;44164;44.954;10.068;2024-03-25T09:05:21;2.90;;;1.10;;
58360;SDS011;44164;44.954;10.068;2024-03-25T09:07:51;2.10;;;1.02;;
58360;SDS011;44164;44.954;10.068;2024-03-25T09:10:18;1.80;;;0.80;;
58360;SDS011;44164;44.954;10.068;2024-03-25T09:13:02;4.10;;;1.27;;
58360;SDS011;44164;44.954;10.068;2024-03-25T09:15:29;2.65;;;1.10;;
58360;SDS011;44164;44.954;10.068;2024-03-25T09:17:55;3.03;;;1.17;;
58360;SDS011;44164;44.954;10.068;2024-03-25T09:20:21;4.38;;;1.15;;
58360;SDS011;44164;44.954;10.068;2024-03-25T09:22:47;5.50;;;1.13;;
58360;SDS011;44164;44.954;10.068;2024-03-25T09:25:17;3.40;;;1.00;;
58360;SDS011;44164;44.954;10.068;2024-03-25T09:27:47;2.67;;;1.05;;
58360;SDS011;44164;44.954;10.068;2024-03-25T09:30:13;2.17;;;0.90;;
58360;SDS011;44164;44.954;10.068;2024-03-25T09:32:40;2.67;;;1.15;;
58360;SDS011;44164;44.954;10.068;2024-03-25T09:35:07;2.00;;;0.90;;
58360;SDS011;44164;44.954;10.068;2024-03-25T09:37:33;10.63;;;1.52;;
58360;SDS011;44164;44.954;10.068;2024-03-25T09:39:59;2.55;;;1.58;;
58360;SDS011;44164;44.954;10.068;2024-03-25T09:42:26;4.43;;;1.50;;
58360;SDS011;44164;44.954;10.068;2024-03-25T09:44:54;4.78;;;1.58;;
58360;SDS011;44164;44.954;10.068;2024-03-25T09:47:24;9.60;;;2.13;;
58360;SDS011;44164;44.954;10.068;2024-03-25T09:49:50;8.52;;;2.00;;
58360;SDS011;44164;44.954;10.068;2024-03-25T09:52:17;4.60;;;1.60;;
58360;SDS011;44164;44.954;10.068;2024-03-25T09:54:44;3.80;;;1.75;;
58360;SDS011;44164;44.954;10.068;2024-03-25T09:57:10;3.10;;;1.65;;
58360;SDS011;44164;44.954;10.068;2024-03-25T09:59:40;8.67;;;2.07;;
58360;SDS011;44164;44.954;10.068;2024-03-25T10:02:07;7.60;;;1.95;;
58360;SDS011;44164;44.954;10.068;2024-03-25T10:04:34;6.40;;;1.85;;
58360;SDS011;44164;44.954;10.068;2024-03-25T10:07:06;7.00;;;2.30;;
58360;SDS011;44164;44.954;10.068;2024-03-25T10:09:32;5.53;;;2.40;;
58360;SDS011;44164;44.954;10.068;2024-03-25T10:11:58;3.65;;;1.80;;
58360;SDS011;44164;44.954;10.068;2024-03-25T10:14:24;6.50;;;2.58;;
58360;SDS011;44164;44.954;10.068;2024-03-25T10:16:51;4.85;;;2.08;;
58360;SDS011;44164;44.954;10.068;2024-03-25T10:19:17;3.92;;;1.75;;
58360;SDS011;44164;44.954;10.068;2024-03-25T10:21:43;6.07;;;2.10;;
58360;SDS011;44164;44.954;10.068;2024-03-25T10:24:09;4.55;;;1.85;;
58360;SDS011;44164;44.954;10.068;2024-03-25T10:26:37;5.20;;;1.87;;
58360;SDS011;44164;44.954;10.068;2024-03-25T10:29:05;5.90;;;2.30;;
58360;SDS011;44164;44.954;10.068;2024-03-25T10:31:36;6.35;;;2.63;;
58360;SDS011;44164;44.954;10.068;2024-03-25T10:34:03;3.95;;;1.80;;
58360;SDS011;44164;44.954;10.068;2024-03-25T10:36:30;5.53;;;1.90;;
58360;SDS011;44164;44.954;10.068;2024-03-25T10:38:56;6.45;;;2.08;;
58360;SDS011;44164;44.954;10.068;2024-03-25T10:41:23;6.63;;;2.95;;
58360;SDS011;44164;44.954;10.068;2024-03-25T10:43:51;7.28;;;2.05;;
58360;SDS011;44164;44.954;10.068;2024-03-25T10:46:20;8.57;;;2.13;;
58360;SDS011;44164;44.954;10.068;2024-03-25T10:48:52;9.63;;;3.25;;
58360;SDS011;44164;44.954;10.068;2024-03-25T10:51:27;6.93;;;2.97;;
58360;SDS011;44164;44.954;10.068;2024-03-25T10:53:54;4.45;;;1.90;;
58360;SDS011;44164;44.954;10.068;2024-03-25T10:56:21;11.30;;;2.35;;
58360;SDS011;44164;44.954;10.068;2024-03-25T10:58:50;8.68;;;2.15;;
58360;SDS011;44164;44.954;10.068;2024-03-25T11:01:17;5.30;;;2.22;;
58360;SDS011;44164;44.954;10.068;2024-03-25T11:03:47;5.83;;;2.43;;
58360;SDS011;44164;44.954;10.068;2024-03-25T11:06:14;6.55;;;2.45;;
58360;SDS011;44164;44.954;10.068;2024-03-25T11:08:40;3.75;;;1.83;;
58360;SDS011;44164;44.954;10.068;2024-03-25T11:11:07;7.63;;;2.03;;
58360;SDS011;44164;44.954;10.068;2024-03-25T11:13:33;10.32;;;2.40;;
58360;SDS011;44164;44.954;10.068;2024-03-25T11:16:00;6.18;;;1.98;;
58360;SDS011;44164;44.954;10.068;2024-03-25T11:18:26;9.05;;;2.45;;
58360;SDS011;44164;44.954;10.068;2024-03-25T11:21:01;4.78;;;1.92;;
58360;SDS011;44164;44.954;10.068;2024-03-25T11:23:40;6.15;;;2.15;;
58360;SDS011;44164;44.954;10.068;2024-03-25T11:29:06;5.68;;;2.53;;
58360;SDS011;44164;44.954;10.068;2024-03-25T11:31:33;7.50;;;2.38;;
58360;SDS011;44164;44.954;10.068;2024-03-25T11:34:05;3.90;;;1.83;;
58360;SDS011;44164;44.954;10.068;2024-03-25T11:36:33;4.38;;;2.00;;
58360;SDS011;44164;44.954;10.068;2024-03-25T11:39:01;4.88;;;2.40;;
58360;SDS011;44164;44.954;10.068;2024-03-25T11:41:39;3.35;;;1.77;;
58360;SDS011;44164;44.954;10.068;2024-03-25T11:44:05;5.40;;;2.10;;
58360;SDS011;44164;44.954;10.068;2024-03-25T11:46:33;2.58;;;1.63;;
58360;SDS011;44164;44.954;10.068;2024-03-25T11:49:05;6.68;;;2.20;;
58360;SDS011;44164;44.954;10.068;2024-03-25T11:51:35;5.80;;;2.45;;
58360;SDS011;44164;44.954;10.068;2024-03-25T11:54:05;3.90;;;2.28;;
58360;SDS011;44164;44.954;10.068;2024-03-25T11:56:32;4.78;;;2.33;;
58360;SDS011;44164;44.954;10.068;2024-03-25T11:58:59;4.53;;;2.15;;
58360;SDS011;44164;44.954;10.068;2024-03-25T12:01:26;4.45;;;2.22;;
58360;SDS011;44164;44.954;10.068;2024-03-25T12:03:52;4.05;;;2.15;;
58360;SDS011;44164;44.954;10.068;2024-03-25T12:06:18;3.13;;;1.90;;
58360;SDS011;44164;44.954;10.068;2024-03-25T12:08:44;5.18;;;2.20;;
58360;SDS011;44164;44.954;10.068;2024-03-25T12:11:31;5.90;;;2.03;;
58360;SDS011;44164;44.954;10.068;2024-03-25T12:13:57;5.85;;;2.38;;
58360;SDS011;44164;44.954;10.068;2024-03-25T12:16:24;4.22;;;2.03;;
58360;SDS011;44164;44.954;10.068;2024-03-25T12:18:50;4.88;;;1.92;;
58360;SDS011;44164;44.954;10.068;2024-03-25T12:21:17;5.60;;;2.22;;
58360;SDS011;44164;44.954;10.068;2024-03-25T12:23:46;4.13;;;2.20;;
58360;SDS011;44164;44.954;10.068;2024-03-25T12:26:13;5.10;;;3.03;;
58360;SDS011;44164;44.954;10.068;2024-03-25T12:28:39;12.23;;;4.15;;
58360;SDS011;44164;44.954;10.068;2024-03-25T12:31:08;8.40;;;3.83;;
58360;SDS011;44164;44.954;10.068;2024-03-25T12:33:43;10.80;;;4.07;;
58360;SDS011;44164;44.954;10.068;2024-03-25T12:36:13;12.07;;;4.85;;
58360;SDS011;44164;44.954;10.068;2024-03-25T12:38:39;10.98;;;4.28;;
58360;SDS011;44164;44.954;10.068;2024-03-25T12:41:06;14.82;;;4.72;;
58360;SDS011;44164;44.954;10.068;2024-03-25T12:43:34;19.25;;;6.82;;
58360;SDS011;44164;44.954;10.068;2024-03-25T12:46:00;19.50;;;6.93;;
58360;SDS011;44164;44.954;10.068;2024-03-25T12:48:27;18.77;;;6.18;;
58360;SDS011;44164;44.954;10.068;2024-03-25T12:50:53;21.00;;;6.97;;
58360;SDS011;44164;44.954;10.068;2024-03-25T12:53:22;12.80;;;5.18;;
58360;SDS011;44164;44.954;10.068;2024-03-25T12:55:48;11.23;;;5.07;;
58360;SDS011;44164;44.954;10.068;2024-03-25T12:58:14;12.90;;;5.07;;
58360;SDS011;44164;44.954;10.068;2024-03-25T13:00:41;13.15;;;5.07;;
58360;SDS011;44164;44.954;10.068;2024-03-25T13:03:07;12.63;;;4.07;;
58360;SDS011;44164;44.954;10.068;2024-03-25T13:05:34;11.10;;;4.55;;
58360;SDS011;44164;44.954;10.068;2024-03-25T13:08:00;8.32;;;3.63;;
58360;SDS011;44164;44.954;10.068;2024-03-25T13:10:27;8.30;;;3.17;;
58360;SDS011;44164;44.954;10.068;2024-03-25T13:12:53;6.10;;;2.45;;
58360;SDS011;44164;44.954;10.068;2024-03-25T13:15:20;9.45;;;2.45;;
58360;SDS011;44164;44.954;10.068;2024-03-25T13:17:46;6.10;;;2.75;;
58360;SDS011;44164;44.954;10.068;2024-03-25T13:20:12;6.65;;;2.60;;
58360;SDS011;44164;44.954;10.068;2024-03-25T13:22:39;4.55;;;2.65;;
58360;SDS011;44164;44.954;10.068;2024-03-25T13:25:08;5.82;;;2.20;;
58360;SDS011;44164;44.954;10.068;2024-03-25T13:27:34;5.38;;;2.53;;
58360;SDS011;44164;44.954;10.068;2024-03-25T13:30:01;7.30;;;2.13;;
58360;SDS011;44164;44.954;10.068;2024-03-25T13:32:27;5.63;;;2.13;;
58360;SDS011;44164;44.954;10.068;2024-03-25T13:34:53;3.85;;;1.50;;
58360;SDS011;44164;44.954;10.068;2024-03-25T13:37:19;4.32;;;1.90;;
58360;SDS011;44164;44.954;10.068;2024-03-25T13:39:45;2.90;;;1.40;;
58360;SDS011;44164;44.954;10.068;2024-03-25T13:42:11;3.55;;;1.65;;
58360;SDS011;44164;44.954;10.068;2024-03-25T13:44:38;2.67;;;1.73;;
58360;SDS011;44164;44.954;10.068;2024-03-25T13:47:05;4.45;;;1.55;;
58360;SDS011;44164;44.954;10.068;2024-03-25T13:49:33;2.97;;;1.55;;
58360;SDS011;44164;44.954;10.068;2024-03-25T13:51:59;2.72;;;1.00;;
58360;SDS011;44164;44.954;10.068;2024-03-25T13:54:26;2.30;;;1.13;;
58360;SDS011;44164;44.954;10.068;2024-03-25T13:56:52;3.30;;;1.38;;
58360;SDS011;44164;44.954;10.068;2024-03-25T13:59:18;3.67;;;1.30;;
58360;SDS011;44164;44.954;10.068;2024-03-25T14:01:45;2.88;;;1.38;;
58360;SDS011;44164;44.954;10.068;2024-03-25T14:04:11;3.72;;;1.60;;
58360;SDS011;44164;44.954;10.068;2024-03-25T14:06:37;4.53;;;1.73;;
58360;SDS011;44164;44.954;10.068;2024-03-25T14:09:05;4.38;;;1.50;;
58360;SDS011;44164;44.954;10.068;2024-03-25T14:11:31;3.85;;;1.45;;
58360;SDS011;44164;44.954;10.068;2024-03-25T14:13:57;2.03;;;1.08;;
58360;SDS011;44164;44.954;10.068;2024-03-25T14:16:23;3.20;;;1.40;;
58360;SDS011;44164;44.954;10.068;2024-03-25T14:18:50;3.60;;;1.40;;
58360;SDS011;44164;44.954;10.068;2024-03-25T14:21:16;3.47;;;1.80;;
58360;SDS011;44164;44.954;10.068;2024-03-25T14:23:42;3.55;;;1.40;;
58360;SDS011;44164;44.954;10.068;2024-03-25T14:26:09;3.38;;;1.60;;
58360;SDS011;44164;44.954;10.068;2024-03-25T14:28:36;4.28;;;1.85;;
58360;SDS011;44164;44.954;10.068;2024-03-25T14:31:03;5.88;;;1.77;;
58360;SDS011;44164;44.954;10.068;2024-03-25T14:33:29;4.47;;;1.40;;
58360;SDS011;44164;44.954;10.068;2024-03-25T14:35:56;2.55;;;1.30;;